createdAt,value
2023-04-20T00:02:03.433Z,96913.17
2023-04-20T00:12:06.706Z,96907.44
2023-04-20T00:22:09.660Z,96906.74
2023-04-20T00:32:12.721Z,96899.40
2023-04-20T00:42:16.883Z,96889.99
2023-04-20T00:52:21.797Z,96894.25
2023-04-20T01:02:25.889Z,96893.75
2023-04-20T01:12:29.123Z,96898.48
2023-04-20T01:22:32.493Z,96895.17
2023-04-20T01:32:35.994Z,96897.98
2023-04-20T01:42:39.600Z,96892.36
2023-04-20T01:52:42.715Z,96888.09
2023-04-20T02:02:46.342Z,96882.56
2023-04-20T02:12:50.606Z,96883.59
2023-04-20T02:22:53.653Z,96886.23
2023-04-20T02:32:56.969Z,96879.20
2023-04-20T02:43:00.399Z,96882.16
2023-04-20T02:53:05.208Z,96883.77
2023-04-20T03:03:11.018Z,96890.20
2023-04-20T03:13:14.682Z,96889.94
2023-04-20T03:23:32.095Z,96895.40
2023-04-20T03:33:36.108Z,96900.64
2023-04-20T03:43:41.517Z,96903.98
2023-04-20T03:53:45.856Z,96913.41
2023-04-20T04:03:51.090Z,96910.98
2023-04-20T04:13:54.673Z,96917.61
2023-04-20T04:23:58.452Z,96923.89
2023-04-20T04:34:15.189Z,96933.30
2023-04-20T04:44:26.231Z,96940.47
2023-04-20T04:54:30.017Z,96953.88
2023-04-20T05:04:33.446Z,96957.52
2023-04-20T05:14:36.700Z,96964.80
2023-04-20T05:24:40.107Z,96970.16
2023-04-20T05:34:43.322Z,96968.52
2023-04-20T05:44:46.574Z,96976.52
2023-04-20T05:54:49.988Z,96969.09
2023-04-20T06:04:53.827Z,96974.97
2023-04-20T06:15:00.626Z,96980.10
2023-04-20T06:25:03.986Z,96975.64
2023-04-20T06:35:08.930Z,96982.67
2023-04-20T06:45:12.428Z,96981.48
2023-04-20T06:55:17.469Z,96983.77
2023-04-20T07:05:36.796Z,96982.88
2023-04-20T07:15:40.089Z,96989.44
2023-04-20T07:25:43.721Z,96995.48
2023-04-20T07:35:47.287Z,96996.52
2023-04-20T07:45:50.412Z,97001.27
2023-04-20T07:55:53.501Z,97008.33
2023-04-20T08:05:56.707Z,97012.72
2023-04-20T08:16:00.284Z,97019.90
2023-04-20T08:26:04.569Z,97022.36
2023-04-20T08:36:07.713Z,97025.23
2023-04-20T08:46:10.985Z,97035.52
2023-04-20T08:56:13.980Z,97034.06
2023-04-20T09:06:18.579Z,97030.77
2023-04-20T09:16:21.713Z,97033.88
2023-04-20T09:26:25.092Z,97039.15
2023-04-20T09:36:50.517Z,97037.86
2023-04-20T09:46:53.652Z,97038.56
2023-04-20T09:56:59.492Z,97030.63
2023-04-20T10:07:06.347Z,97027.61
2023-04-20T10:17:11.593Z,97029.58
2023-04-20T10:27:53.307Z,97027.52
2023-04-20T10:37:56.670Z,97024.52
2023-04-20T10:48:07.485Z,97027.50
2023-04-20T10:58:21.398Z,97027.05
2023-04-20T11:08:24.589Z,97015.61
2023-04-20T11:18:27.613Z,97007.70
2023-04-20T11:28:34.707Z,97002.48
2023-04-20T11:38:38.132Z,96999.35
2023-04-20T11:48:41.733Z,97003.40
2023-04-20T11:58:44.975Z,97006.52
2023-04-20T12:08:48.386Z,97014.33
2023-04-20T12:19:23.206Z,97006.80
2023-04-20T12:29:58.211Z,96997.23
2023-04-20T12:40:01.339Z,96984.13
2023-04-20T12:50:04.881Z,96981.02
2023-04-20T13:00:15.266Z,96978.78
2023-04-20T13:10:18.550Z,96968.75
2023-04-20T13:20:21.619Z,96959.66
2023-04-20T13:30:24.982Z,96953.21
2023-04-20T13:40:28.368Z,96954.11
2023-04-20T13:50:31.785Z,96951.83
2023-04-20T14:00:35.057Z,96956.73
2023-04-20T14:10:39.663Z,96954.45
2023-04-20T14:20:42.939Z,96956.61
2023-04-20T14:30:46.561Z,96953.49
2023-04-20T14:41:21.867Z,96956.01
2023-04-20T14:51:24.937Z,96949.69
2023-04-20T15:01:28.183Z,96945.76
2023-04-20T15:11:31.356Z,96942.95
2023-04-20T15:21:34.485Z,96946.42
2023-04-20T15:31:37.761Z,96958.76
2023-04-20T15:41:40.876Z,96956.55
2023-04-20T15:51:44.444Z,96951.89
2023-04-20T16:01:47.636Z,96946.20
2023-04-20T16:11:51.213Z,96949.45
2023-04-20T16:21:54.266Z,96952.94
2023-04-20T16:31:57.446Z,96949.86
2023-04-20T16:42:00.955Z,96944.89
2023-04-20T16:52:04.320Z,96951.88
2023-04-20T17:02:08.013Z,96959.55
2023-04-20T17:12:44.018Z,96957.38
2023-04-20T17:23:19.723Z,96968.61
2023-04-20T17:33:22.904Z,96975.30
2023-04-20T17:43:26.165Z,96982.62
2023-04-20T17:53:29.255Z,96982.27
2023-04-20T18:03:32.531Z,96983.52
2023-04-20T18:13:36.058Z,96988.19
2023-04-20T18:23:39.663Z,96990.06
2023-04-20T18:33:43.580Z,96989.88
2023-04-20T18:43:47.224Z,96994.70
2023-04-20T18:53:50.635Z,96995.45
2023-04-20T19:03:53.915Z,97000.88
2023-04-20T19:13:57.187Z,97001.59
2023-04-20T19:24:00.794Z,97001.73
2023-04-20T19:34:04.778Z,97001.05
2023-04-20T19:44:10.565Z,97006.46
2023-04-20T19:54:45.980Z,97004.80
2023-04-20T20:04:49.821Z,97004.41
2023-04-20T20:14:53.528Z,97001.86
2023-04-20T20:24:57.407Z,96999.94
2023-04-20T20:35:00.842Z,96994.86
2023-04-20T20:45:07.341Z,96996.95
2023-04-20T20:55:11.105Z,96997.44
2023-04-20T21:05:14.267Z,96999.09
2023-04-20T21:15:18.065Z,97007.46
2023-04-20T21:25:21.321Z,97012.36
2023-04-20T21:35:25.075Z,97013.27
2023-04-20T21:45:28.312Z,97012.33
2023-04-20T21:55:33.916Z,97016.70
2023-04-20T22:05:37.009Z,97015.80
2023-04-20T22:15:40.345Z,97010.69
2023-04-20T22:25:43.837Z,97009.30
2023-04-20T22:35:47.741Z,97008.92
2023-04-20T22:45:54.612Z,97015.70
2023-04-20T22:56:08.403Z,97019.27
2023-04-20T23:06:12.870Z,97015.36
2023-04-20T23:16:16.680Z,97016.69
2023-04-20T23:26:19.806Z,97021.41
2023-04-20T23:36:22.822Z,97019.63
2023-04-20T23:46:26.821Z,97021.19
2023-04-20T23:56:29.850Z,97016.00
